createdAt,value
2019-01-31T00:01:52.160Z,31.73
2019-01-31T00:04:52.757Z,30.43
2019-01-31T00:07:52.611Z,31.50
2019-01-31T00:10:56.326Z,31.97
2019-01-31T00:13:54.296Z,32.07
2019-01-31T00:16:35.965Z,30.83
2019-01-31T00:19:29.791Z,32.20
2019-01-31T00:22:55.353Z,31.00
2019-01-31T00:25:53.532Z,30.50
2019-01-31T00:28:58.241Z,30.73
2019-01-31T00:31:36.308Z,30.17
2019-01-31T00:34:55.575Z,31.33
2019-01-31T00:37:51.576Z,31.67
2019-01-31T00:40:28.534Z,31.27
2019-01-31T00:43:13.888Z,30.43
2019-01-31T00:46:17.964Z,33.03
2019-01-31T00:49:10.780Z,30.50
2019-01-31T00:52:18.475Z,30.57
2019-01-31T00:55:44.285Z,29.93
2019-01-31T00:58:36.562Z,30.80
2019-01-31T01:01:56.951Z,30.03
2019-01-31T01:05:04.973Z,30.07
2019-01-31T01:08:05.551Z,29.50
2019-01-31T01:10:54.815Z,27.70
2019-01-31T01:14:07.897Z,29.73
2019-01-31T01:17:05.776Z,29.20
2019-01-31T01:19:49.378Z,29.80
2019-01-31T01:22:55.629Z,29.20
2019-01-31T01:26:17.226Z,28.23
2019-01-31T01:29:19.618Z,28.43
2019-01-31T01:32:39.194Z,28.77
2019-01-31T01:36:17.326Z,27.27
2019-01-31T01:39:19.194Z,27.80
2019-01-31T01:42:17.247Z,27.90
2019-01-31T01:45:43.123Z,27.97
2019-01-31T01:48:24.750Z,26.00
2019-01-31T01:51:31.256Z,26.17
2019-01-31T01:54:29.126Z,24.00
2019-01-31T01:57:24.914Z,25.47
2019-01-31T02:00:51.046Z,25.07
2019-01-31T02:03:57.213Z,26.20
2019-01-31T02:07:34.727Z,26.07
2019-01-31T02:10:39.379Z,25.40
2019-01-31T02:13:58.888Z,26.50
2019-01-31T02:17:05.117Z,26.30
2019-01-31T02:20:26.737Z,28.10
2019-01-31T02:23:42.840Z,28.53
2019-01-31T02:27:11.446Z,27.60
2019-01-31T02:30:23.701Z,28.20
2019-01-31T02:33:15.552Z,29.77
2019-01-31T02:36:05.183Z,29.93
2019-01-31T02:39:21.756Z,28.80
2019-01-31T02:42:38.036Z,29.63
2019-01-31T02:45:37.618Z,30.90
2019-01-31T02:48:52.148Z,31.07
2019-01-31T02:51:50.300Z,30.27
2019-01-31T02:54:35.588Z,31.00
2019-01-31T02:57:43.314Z,29.90
2019-01-31T03:00:38.380Z,28.83
2019-01-31T03:03:42.836Z,30.13
2019-01-31T03:06:56.165Z,30.27
2019-01-31T03:09:54.345Z,29.40
2019-01-31T03:12:39.425Z,30.50
2019-01-31T03:15:24.967Z,29.57
2019-01-31T03:18:29.018Z,29.97
2019-01-31T03:21:17.422Z,29.77
2019-01-31T03:24:26.588Z,30.63
2019-01-31T03:27:38.761Z,27.30
2019-01-31T03:31:00.026Z,28.33
2019-01-31T03:34:16.796Z,25.47
2019-01-31T03:37:22.411Z,26.97
2019-01-31T03:40:18.436Z,27.17
2019-01-31T03:43:16.002Z,28.03
2019-01-31T03:46:23.646Z,27.87
2019-01-31T03:49:28.057Z,28.87
2019-01-31T03:52:47.594Z,28.27
2019-01-31T03:55:46.501Z,27.07
2019-01-31T03:58:49.601Z,28.57
2019-01-31T04:02:12.099Z,26.23
2019-01-31T04:05:05.391Z,25.97
2019-01-31T04:07:34.920Z,25.00
2019-01-31T04:10:05.266Z,24.17
2019-01-31T04:12:34.771Z,25.53
2019-01-31T04:15:04.802Z,24.17
2019-01-31T04:17:34.449Z,25.57
2019-01-31T04:20:04.289Z,26.43
2019-01-31T04:22:33.756Z,26.27
2019-01-31T04:25:03.301Z,26.93
2019-01-31T04:27:32.816Z,26.10
2019-01-31T04:30:02.335Z,26.20
2019-01-31T04:32:31.819Z,26.87
2019-01-31T04:35:01.346Z,26.60
2019-01-31T04:37:30.855Z,27.30
2019-01-31T04:40:00.460Z,27.57
2019-01-31T04:42:30.011Z,27.30
2019-01-31T04:44:59.522Z,26.67
2019-01-31T04:47:29.029Z,26.57
2019-01-31T04:49:58.550Z,26.00
2019-01-31T04:52:28.051Z,26.23
2019-01-31T04:54:57.571Z,23.60
2019-01-31T04:57:27.072Z,23.67
2019-01-31T04:59:56.603Z,24.00
2019-01-31T05:02:26.127Z,22.23
2019-01-31T05:04:55.595Z,22.60
2019-01-31T05:07:25.161Z,23.67
2019-01-31T05:09:54.659Z,21.53
2019-01-31T05:12:24.124Z,21.87
2019-01-31T05:14:53.616Z,22.23
2019-01-31T05:17:23.132Z,21.43
2019-01-31T05:19:52.645Z,22.10
2019-01-31T05:22:22.114Z,21.77
2019-01-31T05:24:51.641Z,23.67
2019-01-31T05:27:21.350Z,22.13
2019-01-31T05:29:50.862Z,23.23
2019-01-31T05:32:20.401Z,24.63
2019-01-31T05:34:49.901Z,23.60
2019-01-31T05:37:19.410Z,22.00
2019-01-31T05:39:48.972Z,23.80
2019-01-31T05:42:18.488Z,23.40
2019-01-31T05:44:48.002Z,24.43
2019-01-31T05:47:17.515Z,23.23
2019-01-31T05:49:47.089Z,24.30
2019-01-31T05:52:16.570Z,22.90
2019-01-31T05:54:46.030Z,23.50
2019-01-31T05:57:15.540Z,23.53
2019-01-31T05:59:45.072Z,22.60
2019-01-31T06:02:14.595Z,22.13
2019-01-31T06:04:44.086Z,21.00
2019-01-31T06:07:13.623Z,19.47
2019-01-31T06:09:43.126Z,24.27
2019-01-31T06:12:12.634Z,24.70
2019-01-31T06:14:42.165Z,25.97
2019-01-31T06:17:11.714Z,25.23
2019-01-31T06:19:41.206Z,22.63
2019-01-31T06:22:10.706Z,24.07
2019-01-31T06:24:40.215Z,22.10
2019-01-31T06:27:10.118Z,22.63
2019-01-31T06:29:39.634Z,22.97
2019-01-31T06:32:09.170Z,22.43
2019-01-31T06:34:41.015Z,22.60
2019-01-31T06:37:10.699Z,24.07
2019-01-31T06:39:40.207Z,22.93
2019-01-31T06:42:09.762Z,23.53
2019-01-31T06:44:39.294Z,21.57
2019-01-31T06:47:09.151Z,23.10
2019-01-31T06:49:38.639Z,23.00
2019-01-31T06:52:08.166Z,22.93
2019-01-31T06:54:37.652Z,23.17
2019-01-31T06:57:07.211Z,21.27
2019-01-31T06:59:36.726Z,22.73
2019-01-31T07:02:06.250Z,20.83
2019-01-31T07:04:35.788Z,21.47
2019-01-31T07:07:05.306Z,21.60
2019-01-31T07:09:34.814Z,21.07
2019-01-31T07:12:04.293Z,21.70
2019-01-31T07:14:33.783Z,20.37
2019-01-31T07:17:03.291Z,19.87
2019-01-31T07:19:32.787Z,20.10
2019-01-31T07:22:02.322Z,21.03
2019-01-31T07:24:31.798Z,21.60
2019-01-31T07:27:01.491Z,21.67
2019-01-31T07:29:30.992Z,19.63
2019-01-31T07:32:00.486Z,18.43
2019-01-31T07:34:29.987Z,19.47
2019-01-31T07:36:59.586Z,18.70
2019-01-31T07:39:29.079Z,17.30
2019-01-31T07:41:58.612Z,18.23
2019-01-31T07:44:28.438Z,18.17
2019-01-31T07:46:57.968Z,16.47
2019-01-31T07:49:28.400Z,15.73
2019-01-31T07:51:58.291Z,16.00
2019-01-31T07:54:27.824Z,15.03
2019-01-31T07:56:57.302Z,13.70
2019-01-31T07:59:26.801Z,14.63
2019-01-31T08:01:56.295Z,14.53
2019-01-31T08:04:25.799Z,14.27
2019-01-31T08:06:55.353Z,14.90
2019-01-31T08:09:24.860Z,14.20
2019-01-31T08:11:54.310Z,13.17
2019-01-31T08:14:23.861Z,14.17
2019-01-31T08:16:53.433Z,14.33
2019-01-31T08:19:23.003Z,15.23
2019-01-31T08:21:52.556Z,14.23
2019-01-31T08:24:22.136Z,13.63
2019-01-31T08:26:51.709Z,12.73
2019-01-31T08:29:21.315Z,12.20
2019-01-31T08:31:50.783Z,12.07
2019-01-31T08:34:20.298Z,11.47
2019-01-31T08:36:49.798Z,11.03
2019-01-31T08:39:19.353Z,13.97
2019-01-31T08:41:48.828Z,10.10
2019-01-31T08:44:18.311Z,10.67
2019-01-31T08:46:48.259Z,10.50
2019-01-31T08:49:18.215Z,10.57
2019-01-31T08:51:47.758Z,11.10
2019-01-31T08:54:17.233Z,9.83
2019-01-31T08:56:46.915Z,9.60
2019-01-31T08:59:16.442Z,10.03
2019-01-31T09:01:46.204Z,9.70
2019-01-31T09:04:15.698Z,10.10
2019-01-31T09:06:45.219Z,9.80
2019-01-31T09:09:15.362Z,11.10
2019-01-31T09:11:44.887Z,10.70
2019-01-31T09:14:14.395Z,10.77
2019-01-31T09:16:43.912Z,9.90
2019-01-31T09:19:16.262Z,10.20
2019-01-31T09:22:13.669Z,10.63
2019-01-31T09:25:07.854Z,12.30
2019-01-31T09:28:02.972Z,15.77
2019-01-31T09:31:02.228Z,11.67
2019-01-31T09:33:52.861Z,12.90
2019-01-31T09:37:04.646Z,12.23
2019-01-31T09:39:50.691Z,12.77
2019-01-31T09:42:57.835Z,13.80
2019-01-31T09:46:01.959Z,13.33
2019-01-31T09:49:39.683Z,14.13
2019-01-31T09:52:49.390Z,12.43
2019-01-31T09:56:06.213Z,11.53
2019-01-31T09:59:13.893Z,13.00
2019-01-31T10:02:40.494Z,9.83
2019-01-31T10:05:34.423Z,12.30
2019-01-31T10:08:43.785Z,11.37
2019-01-31T10:11:53.065Z,11.33
2019-01-31T10:14:49.677Z,10.80
2019-01-31T10:17:51.060Z,10.40
2019-01-31T10:20:30.198Z,10.60
2019-01-31T10:23:28.066Z,15.40
2019-01-31T10:26:42.379Z,13.77
2019-01-31T10:29:41.695Z,11.53
2019-01-31T10:32:38.220Z,12.93
2019-01-31T10:35:35.867Z,12.53
2019-01-31T10:38:37.633Z,12.27
2019-01-31T10:41:36.961Z,12.63
2019-01-31T10:44:46.062Z,12.07
2019-01-31T10:47:58.318Z,11.47
2019-01-31T10:51:00.268Z,12.67
2019-01-31T10:54:10.021Z,11.57
2019-01-31T10:57:01.266Z,11.10
2019-01-31T11:00:01.573Z,11.40
2019-01-31T11:03:07.689Z,11.33
2019-01-31T11:06:14.555Z,12.13
2019-01-31T11:09:15.955Z,9.90
2019-01-31T11:12:26.254Z,10.30
2019-01-31T11:15:45.376Z,10.83
2019-01-31T11:18:44.813Z,10.87
2019-01-31T11:21:51.260Z,10.87
2019-01-31T11:25:14.131Z,11.17
2019-01-31T11:28:14.899Z,10.47
2019-01-31T11:30:54.353Z,9.93
2019-01-31T11:34:00.279Z,10.37
2019-01-31T11:37:12.521Z,9.70
2019-01-31T11:40:14.445Z,9.97
2019-01-31T11:43:35.857Z,9.60
2019-01-31T11:46:55.428Z,8.97
2019-01-31T11:49:57.658Z,9.40
2019-01-31T11:53:01.176Z,9.40
2019-01-31T11:56:12.981Z,10.27
2019-01-31T11:59:05.055Z,9.50
2019-01-31T12:01:35.245Z,8.70
2019-01-31T12:04:08.497Z,9.43
2019-01-31T12:06:38.029Z,8.33
2019-01-31T12:09:12.317Z,8.77
2019-01-31T12:11:41.959Z,11.33
2019-01-31T12:14:11.486Z,20.87
2019-01-31T12:16:41.220Z,15.50
2019-01-31T12:19:10.894Z,25.20
2019-01-31T12:21:40.602Z,10.33
2019-01-31T12:24:16.189Z,9.17
2019-01-31T12:26:41.357Z,10.87
2019-01-31T12:29:11.241Z,10.30
2019-01-31T12:31:44.917Z,9.20
2019-01-31T12:34:14.987Z,8.60
2019-01-31T12:36:44.914Z,7.60
2019-01-31T12:39:14.730Z,7.00
2019-01-31T12:41:44.565Z,6.03
2019-01-31T12:44:21.623Z,5.00
2019-01-31T12:46:51.185Z,6.00
2019-01-31T12:49:28.403Z,5.47
2019-01-31T12:51:58.083Z,5.80
2019-01-31T12:54:30.437Z,9.73
2019-01-31T12:56:59.926Z,9.20
2019-01-31T12:59:29.469Z,6.13
2019-01-31T13:01:58.937Z,7.90
2019-01-31T13:04:28.492Z,9.07
2019-01-31T13:06:58.251Z,5.97
2019-01-31T13:09:28.346Z,9.90
2019-01-31T13:11:58.274Z,10.57
2019-01-31T13:14:28.556Z,8.03
2019-01-31T13:16:58.458Z,6.80
2019-01-31T13:19:27.996Z,7.40
2019-01-31T13:22:02.483Z,6.67
2019-01-31T13:24:32.893Z,7.80
2019-01-31T13:27:02.709Z,7.87
2019-01-31T13:29:32.215Z,9.93
2019-01-31T13:32:10.559Z,9.97
2019-01-31T13:34:46.126Z,6.83
2019-01-31T13:37:15.999Z,7.03
2019-01-31T13:39:45.812Z,7.07
2019-01-31T13:42:15.538Z,6.57
2019-01-31T13:44:45.005Z,6.00
2019-01-31T13:47:14.720Z,4.63
2019-01-31T13:49:44.218Z,5.60
2019-01-31T13:52:13.819Z,5.20
2019-01-31T13:54:43.314Z,4.80
2019-01-31T13:57:12.800Z,4.90
2019-01-31T13:59:42.280Z,4.70
2019-01-31T14:02:11.892Z,4.43
2019-01-31T14:04:41.409Z,4.93
2019-01-31T14:07:10.979Z,4.00
2019-01-31T14:09:40.468Z,4.57
2019-01-31T14:12:09.937Z,4.17
2019-01-31T14:14:39.422Z,4.73
2019-01-31T14:17:08.932Z,3.70
2019-01-31T14:19:38.432Z,3.73
2019-01-31T14:22:07.933Z,4.07
2019-01-31T14:24:37.505Z,3.73
2019-01-31T14:27:07.064Z,3.40
2019-01-31T14:29:36.549Z,4.13
2019-01-31T14:32:06.355Z,3.40
2019-01-31T14:34:35.868Z,4.17
2019-01-31T14:37:05.974Z,3.70
2019-01-31T14:39:35.539Z,3.80
2019-01-31T14:42:05.206Z,3.93
2019-01-31T14:44:34.769Z,4.00
2019-01-31T14:47:04.283Z,4.60
2019-01-31T14:49:33.883Z,3.40
2019-01-31T14:52:03.427Z,4.13
2019-01-31T14:54:32.882Z,3.63
2019-01-31T14:57:02.432Z,4.00
2019-01-31T14:59:31.911Z,4.37
2019-01-31T15:02:01.402Z,3.80
2019-01-31T15:04:30.919Z,3.90
2019-01-31T15:07:00.463Z,3.67
2019-01-31T15:09:29.947Z,4.20
2019-01-31T15:11:59.676Z,4.03
2019-01-31T15:14:32.001Z,4.60
2019-01-31T15:17:00.331Z,6.67
2019-01-31T15:19:29.891Z,5.70
2019-01-31T15:21:59.380Z,4.73
2019-01-31T15:24:28.899Z,4.63
2019-01-31T15:26:58.443Z,5.37
2019-01-31T15:29:37.753Z,5.03
2019-01-31T15:32:07.630Z,5.67
2019-01-31T15:34:39.417Z,5.17
2019-01-31T15:37:10.101Z,4.93
2019-01-31T15:39:40.134Z,4.70
2019-01-31T15:42:09.620Z,5.07
2019-01-31T15:44:43.347Z,8.40
2019-01-31T15:47:10.278Z,7.17
2019-01-31T15:49:39.838Z,6.37
2019-01-31T15:52:09.429Z,14.20
2019-01-31T15:54:38.937Z,12.30
2019-01-31T15:57:16.440Z,18.73
2019-01-31T15:59:39.661Z,17.00
2019-01-31T16:02:10.040Z,26.47
2019-01-31T16:04:40.542Z,13.83
2019-01-31T16:07:10.139Z,8.83
2019-01-31T16:09:40.880Z,6.37
2019-01-31T16:12:11.819Z,5.47
2019-01-31T16:14:41.597Z,5.93
2019-01-31T16:17:11.075Z,8.83
2019-01-31T16:19:40.605Z,5.00
2019-01-31T16:22:10.129Z,5.73
2019-01-31T16:24:39.790Z,5.37
2019-01-31T16:27:09.432Z,5.30
2019-01-31T16:29:38.918Z,5.13
2019-01-31T16:32:08.517Z,4.70
2019-01-31T16:34:38.005Z,4.67
2019-01-31T16:37:07.558Z,5.20
2019-01-31T16:39:37.032Z,4.40
2019-01-31T16:42:06.555Z,5.33
2019-01-31T16:44:36.030Z,5.00
2019-01-31T16:47:05.881Z,4.17
2019-01-31T16:49:35.463Z,5.10
2019-01-31T16:52:06.321Z,5.13
2019-01-31T16:54:35.807Z,7.47
2019-01-31T16:57:06.956Z,5.87
2019-01-31T16:59:36.427Z,7.17
2019-01-31T17:02:06.142Z,12.40
2019-01-31T17:04:35.661Z,8.47
2019-01-31T17:07:05.350Z,5.73
2019-01-31T17:09:34.870Z,5.20
2019-01-31T17:12:04.497Z,4.97
2019-01-31T17:14:33.991Z,5.13
2019-01-31T17:17:03.473Z,4.90
2019-01-31T17:19:32.978Z,4.40
2019-01-31T17:22:02.479Z,4.50
2019-01-31T17:24:32.040Z,4.60
2019-01-31T17:27:01.667Z,5.00
2019-01-31T17:29:31.201Z,5.90
2019-01-31T17:32:00.687Z,6.03
2019-01-31T17:34:30.325Z,6.63
2019-01-31T17:36:59.827Z,6.33
2019-01-31T17:39:29.326Z,6.67
2019-01-31T17:41:58.831Z,6.50
2019-01-31T17:44:28.364Z,5.10
2019-01-31T17:46:57.850Z,5.10
2019-01-31T17:49:27.351Z,6.17
2019-01-31T17:51:56.837Z,5.70
2019-01-31T17:54:26.402Z,4.80
2019-01-31T17:56:55.878Z,5.30
2019-01-31T17:59:25.390Z,4.93
2019-01-31T18:01:55.535Z,4.73
2019-01-31T18:04:25.203Z,5.13
2019-01-31T18:06:54.735Z,4.93
2019-01-31T18:09:24.223Z,5.40
2019-01-31T18:11:53.834Z,5.40
2019-01-31T18:14:23.296Z,4.77
2019-01-31T18:16:52.794Z,4.67
2019-01-31T18:19:22.290Z,5.20
2019-01-31T18:21:51.830Z,4.77
2019-01-31T18:24:21.302Z,5.00
2019-01-31T18:26:50.785Z,5.10
2019-01-31T18:29:20.398Z,5.47
2019-01-31T18:31:49.898Z,5.90
2019-01-31T18:34:19.463Z,6.60
2019-01-31T18:36:48.935Z,6.60
2019-01-31T18:39:18.511Z,5.97
2019-01-31T18:41:48.018Z,5.60
2019-01-31T18:44:17.503Z,5.73
2019-01-31T18:46:47.031Z,5.60
2019-01-31T18:49:16.559Z,5.47
2019-01-31T18:51:46.049Z,5.67
2019-01-31T18:54:19.316Z,4.80
2019-01-31T18:56:49.247Z,5.43
2019-01-31T18:59:18.719Z,5.00
2019-01-31T19:01:48.231Z,5.30
2019-01-31T19:04:17.714Z,6.23
2019-01-31T19:06:47.204Z,5.37
2019-01-31T19:09:16.690Z,5.27
2019-01-31T19:11:46.193Z,5.60
2019-01-31T19:14:15.705Z,5.70
2019-01-31T19:16:45.223Z,5.60
2019-01-31T19:19:14.728Z,6.07
2019-01-31T19:21:44.225Z,6.03
2019-01-31T19:24:13.762Z,5.50
2019-01-31T19:26:43.286Z,6.03
2019-01-31T19:29:12.805Z,5.93
2019-01-31T19:31:42.315Z,5.27
2019-01-31T19:34:11.807Z,6.20
2019-01-31T19:36:41.327Z,6.03
2019-01-31T19:39:16.146Z,5.20
2019-01-31T19:41:45.642Z,5.30
2019-01-31T19:44:15.167Z,5.73
2019-01-31T19:46:44.851Z,5.50
2019-01-31T19:49:14.336Z,4.97
2019-01-31T19:51:43.855Z,5.10
2019-01-31T19:54:13.344Z,4.40
2019-01-31T19:56:42.809Z,4.70
2019-01-31T19:59:12.311Z,5.07
2019-01-31T20:01:41.212Z,4.97
2019-01-31T20:04:10.709Z,5.13
2019-01-31T20:06:40.196Z,5.07
2019-01-31T20:09:19.344Z,5.03
2019-01-31T20:11:48.875Z,5.67
2019-01-31T20:14:18.424Z,5.13
2019-01-31T20:16:47.944Z,4.80
2019-01-31T20:19:17.447Z,5.05
2019-01-31T20:21:46.983Z,5.17
2019-01-31T20:24:16.478Z,5.03
2019-01-31T20:26:45.955Z,5.10
2019-01-31T20:29:15.618Z,5.03
2019-01-31T20:31:45.139Z,4.90
2019-01-31T20:34:14.664Z,5.20
2019-01-31T20:36:44.174Z,5.60
2019-01-31T20:39:13.706Z,5.27
2019-01-31T20:41:53.445Z,5.73
2019-01-31T20:44:14.360Z,5.80
2019-01-31T20:46:43.859Z,5.07
2019-01-31T20:49:13.338Z,6.20
2019-01-31T20:51:42.966Z,6.07
2019-01-31T20:54:12.471Z,5.60
2019-01-31T20:56:41.960Z,5.90
2019-01-31T20:59:11.435Z,5.43
2019-01-31T21:01:40.961Z,5.77
2019-01-31T21:04:10.479Z,5.67
2019-01-31T21:06:41.535Z,5.63
2019-01-31T21:09:11.188Z,5.00
2019-01-31T21:11:40.797Z,4.53
2019-01-31T21:14:10.225Z,4.97
2019-01-31T21:16:51.074Z,4.43
2019-01-31T21:19:10.891Z,4.60
2019-01-31T21:21:40.392Z,4.70
2019-01-31T21:24:09.857Z,4.43
2019-01-31T21:26:39.451Z,4.57
2019-01-31T21:29:09.096Z,4.50
2019-01-31T21:31:38.601Z,4.37
2019-01-31T21:34:08.213Z,5.50
2019-01-31T21:36:37.916Z,4.67
2019-01-31T21:39:09.995Z,4.60
2019-01-31T21:41:39.487Z,4.37
2019-01-31T21:44:08.949Z,4.73
2019-01-31T21:46:38.489Z,4.93
2019-01-31T21:49:08.009Z,4.43
2019-01-31T21:51:37.483Z,4.90
2019-01-31T21:54:07.244Z,4.60
2019-01-31T21:56:36.788Z,4.60
2019-01-31T21:59:08.815Z,4.30
2019-01-31T22:01:37.462Z,4.60
2019-01-31T22:04:06.975Z,4.33
2019-01-31T22:06:38.637Z,4.53
2019-01-31T22:09:10.198Z,4.30
2019-01-31T22:11:39.709Z,4.10
2019-01-31T22:14:09.217Z,3.83
2019-01-31T22:16:38.732Z,4.30
2019-01-31T22:19:08.215Z,4.60
2019-01-31T22:21:37.734Z,4.33
2019-01-31T22:24:07.323Z,4.33
2019-01-31T22:26:36.827Z,4.03
2019-01-31T22:29:08.250Z,4.53
2019-01-31T22:31:37.614Z,4.57
2019-01-31T22:34:07.141Z,4.40
2019-01-31T22:36:36.911Z,4.30
2019-01-31T22:39:08.929Z,4.20
2019-01-31T22:41:38.490Z,3.87
2019-01-31T22:44:07.971Z,4.30
2019-01-31T22:46:37.449Z,4.37
2019-01-31T22:49:06.970Z,4.20
2019-01-31T22:51:37.567Z,4.60
2019-01-31T22:54:07.427Z,4.50
2019-01-31T22:56:36.998Z,4.50
2019-01-31T22:59:06.521Z,4.80
2019-01-31T23:01:42.975Z,5.40
2019-01-31T23:04:12.499Z,5.37
2019-01-31T23:06:41.983Z,4.93
2019-01-31T23:09:13.163Z,5.27
2019-01-31T23:11:42.678Z,5.07
2019-01-31T23:14:12.255Z,4.73
2019-01-31T23:16:41.773Z,4.60
2019-01-31T23:19:11.239Z,4.50
2019-01-31T23:21:40.734Z,4.40
2019-01-31T23:24:10.450Z,4.47
2019-01-31T23:26:40.034Z,4.80
2019-01-31T23:29:09.797Z,4.60
2019-01-31T23:31:39.321Z,4.73
2019-01-31T23:34:08.832Z,4.30
2019-01-31T23:36:38.353Z,5.47
2019-01-31T23:39:10.855Z,4.37
2019-01-31T23:41:40.471Z,4.90
2019-01-31T23:44:09.981Z,4.33
2019-01-31T23:46:39.494Z,4.37
2019-01-31T23:49:09.034Z,4.17
2019-01-31T23:51:38.598Z,4.50
2019-01-31T23:54:08.296Z,4.40
2019-01-31T23:56:37.758Z,4.47
2019-01-31T23:59:07.491Z,4.50
